Time;durP1;ratioP1;P1;durP2;ratioP2;P2;SDS_P1;SDS_P2;PMS_P1;PMS_P2;Temp;Humidity;BMP_temperature;BMP_pressure;BME280_temperature;BME280_humidity;BME280_pressure;Samples;Min_cycle;Max_cycle;Signal;HPM_P1;HPM_P2
2022/03/07 00:01:59;;;;;;;2.37;2.20;;;2.50;90.70;;;;;;6244347;23;20480;-71
2022/03/07 00:04:26;;;;;;;1.20;1.07;;;2.40;91.10;;;;;;6244231;23;20421;-72
2022/03/07 00:06:53;;;;;;;1.20;1.10;;;2.40;91.10;;;;;;6244511;23;20398;-71
2022/03/07 00:09:20;;;;;;;2.07;1.93;;;2.40;90.60;;;;;;6242650;23;20417;-71
2022/03/07 00:11:47;;;;;;;1.43;1.37;;;2.40;91.10;;;;;;6244423;23;20919;-72
2022/03/07 00:14:14;;;;;;;1.60;1.60;;;2.30;91.40;;;;;;6244476;23;20452;-71
2022/03/07 00:16:41;;;;;;;4.80;2.60;;;2.20;91.50;;;;;;6244407;23;20401;-72
2022/03/07 00:19:10;;;;;;;1.40;1.30;;;2.20;91.50;;;;;;6244486;23;20723;-71
2022/03/07 00:21:38;;;;;;;1.40;1.20;;;2.20;91.50;;;;;;6243830;23;20441;-72
2022/03/07 00:24:06;;;;;;;1.60;1.53;;;2.10;91.90;;;;;;6244049;23;20405;-72
2022/03/07 00:26:33;;;;;;;1.30;1.20;;;2.10;92.00;;;;;;6244410;23;20918;-72
2022/03/07 00:29:00;;;;;;;3.87;1.77;;;2.10;91.90;;;;;;6244393;23;20398;-71
2022/03/07 00:31:27;;;;;;;1.20;1.10;;;2.10;91.70;;;;;;6244092;23;20425;-72
2022/03/07 00:33:56;;;;;;;1.50;1.50;;;2.10;91.60;;;;;;6244436;23;20420;-72
2022/03/07 00:36:25;;;;;;;1.60;1.50;;;2.10;91.30;;;;;;6244264;23;20501;-72
2022/03/07 00:38:53;;;;;;;2.70;1.13;;;2.10;91.10;;;;;;6244357;23;20476;-71
2022/03/07 00:41:20;;;;;;;1.20;1.00;;;2.20;91.10;;;;;;6243675;23;20876;-72
2022/03/07 00:43:47;;;;;;;1.90;1.20;;;2.20;91.10;;;;;;6244211;23;20950;-71
2022/03/07 00:46:14;;;;;;;1.73;1.63;;;2.10;90.80;;;;;;6244151;23;20455;-71
2022/03/07 00:48:41;;;;;;;1.40;1.20;;;2.20;90.40;;;;;;6244171;23;20786;-71
2022/03/07 00:51:08;;;;;;;1.50;1.30;;;2.10;90.50;;;;;;6244084;23;20452;-74
2022/03/07 00:53:36;;;;;;;1.13;1.00;;;2.00;90.40;;;;;;6243626;23;20421;-72
2022/03/07 00:56:11;;;;;;;1.80;1.27;;;1.90;90.50;;;;;;6243546;23;20432;-72
2022/03/07 00:58:38;;;;;;;1.40;1.23;;;1.90;90.70;;;;;;6243845;23;20450;-71
2022/03/07 01:01:08;;;;;;;1.20;1.20;;;1.80;90.50;;;;;;6244033;23;20456;-71
2022/03/07 01:03:35;;;;;;;1.20;1.10;;;1.80;90.30;;;;;;6218066;23;20435;-72
2022/03/07 01:06:03;;;;;;;2.07;1.73;;;1.80;90.00;;;;;;6244277;23;20429;-71
2022/03/07 01:08:30;;;;;;;1.50;1.40;;;1.80;89.70;;;;;;6244038;23;20730;-72
2022/03/07 01:10:58;;;;;;;1.17;1.10;;;1.70;89.70;;;;;;6243843;23;20413;-71
2022/03/07 01:13:26;;;;;;;1.50;1.40;;;1.80;89.40;;;;;;6243679;23;20459;-72
2022/03/07 01:15:53;;;;;;;1.40;1.20;;;1.80;89.20;;;;;;6243820;23;20775;-72
2022/03/07 01:18:20;;;;;;;2.30;1.97;;;1.90;88.90;;;;;;6217429;23;20393;-72
2022/03/07 01:20:47;;;;;;;1.37;1.33;;;1.80;88.80;;;;;;6243823;23;20413;-70
2022/03/07 01:23:14;;;;;;;1.33;1.27;;;1.80;88.70;;;;;;6243724;23;20461;-70
2022/03/07 01:25:42;;;;;;;1.67;1.30;;;1.80;88.70;;;;;;6217774;23;20721;-69
2022/03/07 01:28:13;;;;;;;1.20;1.10;;;1.70;89.20;;;;;;6244214;23;20437;-70
2022/03/07 01:30:41;;;;;;;1.20;1.00;;;1.70;89.10;;;;;;6217810;23;20426;-70
2022/03/07 01:33:08;;;;;;;2.37;1.40;;;1.70;89.10;;;;;;6243722;23;20421;-70
2022/03/07 01:35:35;;;;;;;1.20;0.90;;;1.70;88.80;;;;;;6243290;23;20420;-69
2022/03/07 01:38:03;;;;;;;1.50;1.27;;;1.70;88.50;;;;;;6243926;23;20736;-70
2022/03/07 01:40:30;;;;;;;2.43;1.73;;;1.70;88.50;;;;;;6243837;23;20401;-69
2022/03/07 01:42:57;;;;;;;1.10;1.00;;;1.70;88.40;;;;;;6217135;23;20426;-69
2022/03/07 01:45:26;;;;;;;1.33;1.27;;;1.90;88.00;;;;;;6243653;23;20406;-68
2022/03/07 01:47:53;;;;;;;1.30;1.27;;;1.90;88.00;;;;;;6243753;23;20409;-70
2022/03/07 01:50:21;;;;;;;2.23;1.30;;;2.00;88.00;;;;;;6243624;23;20773;-70
2022/03/07 01:52:52;;;;;;;1.30;1.10;;;2.10;87.40;;;;;;6243423;23;20425;-70
2022/03/07 01:55:20;;;;;;;1.30;1.20;;;2.10;86.80;;;;;;6243679;23;20880;-68
2022/03/07 01:57:49;;;;;;;1.50;1.20;;;1.90;87.30;;;;;;6253680;23;20443;-69
2022/03/07 02:00:18;;;;;;;1.50;1.43;;;1.80;87.40;;;;;;6243655;23;20406;-69
2022/03/07 02:02:47;;;;;;;1.20;1.00;;;1.70;87.90;;;;;;6243618;23;20442;-69
2022/03/07 02:05:14;;;;;;;1.47;1.40;;;1.70;88.20;;;;;;6243826;23;20413;-68
2022/03/07 02:07:41;;;;;;;1.93;1.30;;;1.60;88.40;;;;;;6245391;23;20884;-68
2022/03/07 02:10:10;;;;;;;1.20;1.17;;;1.60;88.60;;;;;;6246032;23;20459;-68
2022/03/07 02:12:37;;;;;;;1.90;1.87;;;1.50;88.60;;;;;;6245451;23;20420;-68
2022/03/07 02:15:07;;;;;;;1.20;1.10;;;1.40;88.50;;;;;;6245715;23;20397;-69
2022/03/07 02:17:34;;;;;;;1.63;1.20;;;1.40;88.80;;;;;;6245961;23;20401;-68
2022/03/07 02:20:05;;;;;;;1.73;1.33;;;1.30;88.80;;;;;;6245494;23;20487;-68
2022/03/07 02:22:36;;;;;;;1.50;1.30;;;1.30;89.10;;;;;;6244934;23;20923;-68
2022/03/07 02:25:03;;;;;;;1.20;1.13;;;1.30;89.50;;;;;;6244296;23;20422;-68
2022/03/07 02:27:30;;;;;;;1.30;1.27;;;1.30;89.20;;;;;;6245104;23;20429;-68
2022/03/07 02:29:59;;;;;;;1.20;1.20;;;1.20;88.90;;;;;;6245156;23;20436;-68
2022/03/07 02:32:27;;;;;;;1.93;1.83;;;1.10;89.60;;;;;;6245427;23;20544;-69
2022/03/07 02:34:54;;;;;;;1.73;1.47;;;1.40;88.90;;;;;;6245492;23;20405;-68
2022/03/07 02:37:21;;;;;;;1.10;0.93;;;1.20;89.10;;;;;;6245339;23;20390;-69
2022/03/07 02:39:49;;;;;;;2.43;2.23;;;1.20;89.30;;;;;;6245763;23;20429;-69
2022/03/07 02:42:16;;;;;;;1.63;1.30;;;1.30;89.20;;;;;;6244709;23;20451;-69
2022/03/07 02:44:43;;;;;;;1.20;1.10;;;1.10;89.70;;;;;;6245329;23;20397;-69
2022/03/07 02:47:13;;;;;;;1.20;1.00;;;1.10;89.60;;;;;;6244893;23;20433;-68
2022/03/07 02:49:40;;;;;;;1.50;1.40;;;1.10;89.40;;;;;;6245247;23;20408;-69
2022/03/07 02:52:08;;;;;;;1.20;1.07;;;1.00;89.90;;;;;;6245414;23;20432;-68
2022/03/07 02:54:38;;;;;;;1.20;1.00;;;1.00;90.50;;;;;;6245340;23;20398;-68
2022/03/07 02:57:06;;;;;;;1.20;1.20;;;1.00;89.60;;;;;;6245394;23;20448;-68
2022/03/07 02:59:33;;;;;;;1.30;1.23;;;1.10;89.80;;;;;;6245794;23;20394;-69
2022/03/07 03:02:00;;;;;;;1.97;1.30;;;1.00;89.60;;;;;;6246409;23;20468;-68
2022/03/07 03:04:27;;;;;;;1.20;1.10;;;1.00;90.40;;;;;;6245861;23;20439;-68
2022/03/07 03:06:54;;;;;;;1.20;1.20;;;1.20;89.60;;;;;;6245991;23;20441;-69
2022/03/07 03:09:21;;;;;;;1.20;1.10;;;1.30;89.50;;;;;;6245258;23;20420;-69
2022/03/07 03:11:48;;;;;;;1.17;1.13;;;1.40;88.80;;;;;;6245579;23;20425;-68
2022/03/07 03:14:16;;;;;;;1.40;1.33;;;1.50;89.20;;;;;;6245334;23;20398;-68
2022/03/07 03:16:43;;;;;;;1.10;0.97;;;1.40;89.30;;;;;;6244657;23;20440;-68
2022/03/07 03:19:10;;;;;;;1.43;1.43;;;1.40;89.00;;;;;;6244697;23;20938;-68
2022/03/07 03:21:40;;;;;;;1.50;1.40;;;1.40;89.30;;;;;;6245036;23;20703;-68
2022/03/07 03:24:07;;;;;;;1.27;1.10;;;1.40;89.80;;;;;;6245013;23;20429;-68
2022/03/07 03:26:34;;;;;;;1.20;1.00;;;1.40;89.30;;;;;;6244577;23;20433;-68
2022/03/07 03:29:01;;;;;;;1.87;1.63;;;1.30;90.00;;;;;;6245162;23;20429;-69
2022/03/07 03:31:30;;;;;;;1.73;1.63;;;1.20;90.20;;;;;;6244471;23;20432;-68
2022/03/07 03:33:57;;;;;;;1.67;1.57;;;1.20;90.50;;;;;;6244964;23;20421;-69
2022/03/07 03:36:23;;;;;;;1.20;1.20;;;1.30;90.00;;;;;;6244407;23;20397;-68
2022/03/07 03:38:51;;;;;;;1.47;1.30;;;1.30;89.90;;;;;;6245064;23;20436;-69
2022/03/07 03:41:18;;;;;;;1.20;1.13;;;1.20;90.10;;;;;;6244528;23;20429;-68
2022/03/07 03:43:45;;;;;;;1.87;1.47;;;1.20;90.20;;;;;;6218340;23;20456;-68
2022/03/07 03:46:12;;;;;;;1.10;1.00;;;1.10;90.90;;;;;;6217584;23;20475;-68
2022/03/07 03:48:41;;;;;;;1.17;1.10;;;1.10;91.20;;;;;;6244800;23;20429;-69
2022/03/07 03:51:08;;;;;;;1.30;1.20;;;1.10;91.80;;;;;;6244440;23;20724;-69
2022/03/07 03:53:35;;;;;;;1.10;1.10;;;1.10;91.80;;;;;;6217956;23;20394;-68
2022/03/07 03:56:04;;;;;;;1.70;1.10;;;1.20;91.20;;;;;;6244431;23;20406;-68
2022/03/07 03:58:31;;;;;;;1.20;1.07;;;1.30;90.70;;;;;;6244435;23;20864;-68
2022/03/07 04:00:58;;;;;;;1.33;1.27;;;1.30;90.30;;;;;;6244831;23;20456;-68
2022/03/07 04:03:26;;;;;;;2.13;1.80;;;1.20;90.90;;;;;;6245172;23;20541;-69
2022/03/07 04:06:00;;;;;;;2.20;2.03;;;1.20;91.80;;;;;;6244573;23;20525;-68
2022/03/07 04:08:27;;;;;;;2.00;1.90;;;1.20;91.80;;;;;;6217694;23;20421;-68
2022/03/07 04:10:56;;;;;;;1.93;1.77;;;1.30;91.20;;;;;;6244515;23;20427;-68
2022/03/07 04:13:23;;;;;;;2.43;2.23;;;1.20;91.50;;;;;;6244411;23;20746;-68
2022/03/07 04:15:50;;;;;;;2.07;1.70;;;1.30;91.80;;;;;;6217910;23;20408;-68
2022/03/07 04:18:17;;;;;;;2.17;2.00;;;1.30;91.60;;;;;;6217282;23;20418;-69
2022/03/07 04:20:44;;;;;;;1.20;1.13;;;1.30;91.60;;;;;;6244359;23;20441;-69
2022/03/07 04:23:12;;;;;;;1.40;1.23;;;1.20;92.10;;;;;;6244061;23;20454;-69
2022/03/07 04:25:39;;;;;;;1.20;1.10;;;1.30;92.20;;;;;;6243945;23;20408;-68
2022/03/07 04:28:06;;;;;;;2.70;1.63;;;1.30;92.00;;;;;;6244326;23;20425;-68
2022/03/07 04:30:34;;;;;;;1.80;1.70;;;1.30;91.60;;;;;;6244107;23;20468;-69
2022/03/07 04:33:01;;;;;;;1.60;1.50;;;1.20;91.50;;;;;;6244341;23;20417;-68
2022/03/07 04:35:28;;;;;;;2.10;1.97;;;1.00;92.00;;;;;;6244183;23;20397;-69
2022/03/07 04:38:00;;;;;;;1.90;1.77;;;1.00;92.90;;;;;;6244171;23;20410;-68
2022/03/07 04:40:29;;;;;;;2.00;1.90;;;0.90;92.60;;;;;;6244246;23;20903;-68
2022/03/07 04:43:01;;;;;;;1.53;1.47;;;0.80;92.80;;;;;;6243774;23;20418;-69
2022/03/07 04:45:28;;;;;;;1.53;1.47;;;0.90;93.50;;;;;;6216963;23;20422;-69
2022/03/07 04:47:55;;;;;;;1.30;1.20;;;0.90;93.30;;;;;;6244321;23;20430;-69
2022/03/07 04:50:22;;;;;;;1.87;1.40;;;0.90;93.10;;;;;;6244374;23;20406;-68
2022/03/07 04:52:49;;;;;;;1.20;1.10;;;1.00;92.70;;;;;;6218076;23;20394;-69
2022/03/07 04:55:16;;;;;;;1.53;1.47;;;0.80;92.90;;;;;;6244294;23;20429;-68
2022/03/07 04:57:44;;;;;;;1.87;1.30;;;0.70;93.30;;;;;;6244056;23;20460;-69
2022/03/07 05:00:16;;;;;;;1.20;1.10;;;0.80;93.60;;;;;;6244009;23;20427;-69
2022/03/07 05:02:44;;;;;;;1.10;1.00;;;0.80;93.50;;;;;;6243637;23;20397;-69
2022/03/07 05:05:13;;;;;;;1.50;1.30;;;0.80;93.60;;;;;;6243847;23;20809;-68
2022/03/07 05:07:40;;;;;;;2.03;1.53;;;0.70;93.90;;;;;;6243960;23;20463;-69
2022/03/07 05:10:10;;;;;;;1.60;1.50;;;0.60;94.00;;;;;;6244102;23;20397;-69
2022/03/07 05:12:37;;;;;;;1.10;1.00;;;0.60;93.90;;;;;;6244085;23;20471;-69
2022/03/07 05:15:06;;;;;;;1.50;1.30;;;0.60;93.90;;;;;;6244105;23;20473;-69
2022/03/07 05:17:40;;;;;;;1.50;1.30;;;0.50;94.50;;;;;;6243823;23;20450;-69
2022/03/07 05:20:09;;;;;;;1.47;1.47;;;0.40;95.00;;;;;;6244028;23;20440;-69
2022/03/07 05:22:36;;;;;;;2.90;1.47;;;0.40;95.10;;;;;;6243995;23;20775;-68
2022/03/07 05:25:04;;;;;;;1.13;1.07;;;0.40;95.30;;;;;;6243846;23;20483;-68
2022/03/07 05:27:31;;;;;;;1.10;1.00;;;0.30;95.40;;;;;;6243907;23;20401;-68
2022/03/07 05:29:58;;;;;;;2.00;1.90;;;0.20;95.70;;;;;;6243415;23;20471;-68
2022/03/07 05:32:26;;;;;;;1.53;1.47;;;0.10;96.10;;;;;;6243818;23;20400;-69
2022/03/07 05:34:53;;;;;;;1.33;1.20;;;0.10;96.10;;;;;;6243464;23;20403;-68
2022/03/07 05:37:34;;;;;;;1.40;1.23;;;0.00;96.30;;;;;;6243911;23;20465;-68
2022/03/07 05:40:01;;;;;;;3.30;2.13;;;0.00;96.40;;;;;;6243432;23;20446;-68
2022/03/07 05:42:36;;;;;;;2.53;1.20;;;0.00;96.60;;;;;;6246226;23;20408;-69
2022/03/07 05:45:04;;;;;;;1.80;1.70;;;-0.10;96.70;;;;;;6245868;23;20483;-68
2022/03/07 05:47:32;;;;;;;1.53;1.20;;;-0.10;96.70;;;;;;6245422;23;20462;-68
2022/03/07 05:50:00;;;;;;;1.20;1.10;;;0.00;97.10;;;;;;6245760;23;20645;-68
2022/03/07 05:52:27;;;;;;;1.40;1.40;;;0.00;96.90;;;;;;6245704;23;20417;-69
2022/03/07 05:54:54;;;;;;;1.20;1.00;;;0.00;96.40;;;;;;6219593;23;20472;-68
2022/03/07 05:57:22;;;;;;;1.30;1.20;;;0.10;96.20;;;;;;6245436;23;20400;-68
2022/03/07 05:59:50;;;;;;;1.30;1.27;;;0.10;96.50;;;;;;6245849;23;20401;-68
2022/03/07 06:02:18;;;;;;;1.10;1.10;;;0.10;96.70;;;;;;6245755;23;20718;-68
2022/03/07 06:04:46;;;;;;;1.10;1.00;;;0.10;96.90;;;;;;6245639;23;20467;-69
2022/03/07 06:07:13;;;;;;;1.20;1.10;;;0.10;97.00;;;;;;6218912;23;20875;-68
2022/03/07 06:09:43;;;;;;;1.93;1.83;;;0.30;96.40;;;;;;6245650;23;20417;-68
2022/03/07 06:12:10;;;;;;;1.37;1.37;;;0.40;96.20;;;;;;6219641;23;20913;-68
2022/03/07 06:14:37;;;;;;;2.37;2.13;;;0.30;96.40;;;;;;6245561;23;20401;-68
2022/03/07 06:17:04;;;;;;;1.97;1.80;;;0.50;96.50;;;;;;6245587;23;20405;-69
2022/03/07 06:19:32;;;;;;;1.20;1.10;;;0.50;96.00;;;;;;6245888;23;20439;-69
2022/03/07 06:22:00;;;;;;;1.60;1.43;;;0.60;95.80;;;;;;6245253;23;20878;-68
2022/03/07 06:24:28;;;;;;;1.50;1.47;;;0.40;96.20;;;;;;6245443;23;20779;-68
2022/03/07 06:26:56;;;;;;;1.10;1.00;;;0.40;96.40;;;;;;6245545;23;20788;-68
2022/03/07 06:29:24;;;;;;;1.17;1.00;;;0.30;96.70;;;;;;6245437;23;20399;-68
2022/03/07 06:31:52;;;;;;;1.10;1.00;;;0.30;97.00;;;;;;6245254;23;20408;-69
2022/03/07 06:34:19;;;;;;;1.10;1.10;;;0.30;96.80;;;;;;6245693;23;20420;-68
2022/03/07 06:36:47;;;;;;;1.10;1.00;;;0.30;97.10;;;;;;6245530;23;20407;-68
2022/03/07 06:39:15;;;;;;;1.20;1.20;;;0.40;96.60;;;;;;6245402;23;20495;-68
2022/03/07 06:41:42;;;;;;;1.10;1.00;;;0.40;96.60;;;;;;6245220;23;20435;-68
2022/03/07 06:44:09;;;;;;;1.67;1.33;;;0.40;96.60;;;;;;6244855;23;20460;-68
2022/03/07 06:46:36;;;;;;;5.13;2.00;;;0.40;97.10;;;;;;6245255;23;20430;-68
2022/03/07 06:49:03;;;;;;;1.60;1.50;;;0.40;97.10;;;;;;6245306;23;20455;-69
2022/03/07 06:51:30;;;;;;;1.20;1.20;;;0.40;97.00;;;;;;6245192;23;20401;-68
2022/03/07 06:53:57;;;;;;;2.27;1.90;;;0.30;97.50;;;;;;6218575;23;20430;-69
2022/03/07 06:56:25;;;;;;;1.20;1.10;;;0.30;97.80;;;;;;6245140;23;20781;-69
2022/03/07 06:58:52;;;;;;;1.47;1.37;;;0.40;97.80;;;;;;6245144;23;20787;-69
2022/03/07 07:01:19;;;;;;;2.63;2.30;;;0.30;98.00;;;;;;6245163;23;20417;-69
2022/03/07 07:03:46;;;;;;;1.20;1.10;;;0.50;97.90;;;;;;6245135;23;20451;-68
2022/03/07 07:06:14;;;;;;;1.20;1.20;;;0.60;97.30;;;;;;6218037;23;20484;-71
2022/03/07 07:08:41;;;;;;;1.37;1.33;;;0.60;97.70;;;;;;6245337;23;20472;-70
2022/03/07 07:11:09;;;;;;;1.20;1.10;;;0.70;97.60;;;;;;6244858;23;20405;-71
2022/03/07 07:13:37;;;;;;;1.63;1.57;;;0.70;97.30;;;;;;6245044;23;20451;-71
2022/03/07 07:16:06;;;;;;;1.10;1.00;;;0.70;97.20;;;;;;6245200;23;20398;-71
2022/03/07 07:18:33;;;;;;;1.33;1.23;;;0.80;97.10;;;;;;6245117;23;20468;-70
2022/03/07 07:20:59;;;;;;;1.20;1.10;;;0.70;97.50;;;;;;6244792;23;20421;-71
2022/03/07 07:23:27;;;;;;;1.10;1.00;;;0.70;97.60;;;;;;6244720;23;20930;-71
2022/03/07 07:25:54;;;;;;;1.20;1.10;;;0.80;97.50;;;;;;6245035;23;20444;-71
2022/03/07 07:28:21;;;;;;;1.17;1.00;;;0.80;97.40;;;;;;6245095;23;20413;-71
2022/03/07 07:30:50;;;;;;;1.63;1.20;;;0.70;97.80;;;;;;6244593;23;20772;-71
2022/03/07 07:33:18;;;;;;;1.20;1.00;;;0.70;97.90;;;;;;6245009;23;20472;-71
2022/03/07 07:35:53;;;;;;;1.20;1.00;;;0.80;97.60;;;;;;6244989;23;20396;-71
2022/03/07 07:38:21;;;;;;;1.60;1.30;;;0.80;97.70;;;;;;6244633;23;20479;-72
2022/03/07 07:40:48;;;;;;;1.60;1.40;;;0.90;97.50;;;;;;6244735;23;20441;-71
2022/03/07 07:43:16;;;;;;;1.50;1.23;;;0.90;96.80;;;;;;6244395;23;20424;-71
2022/03/07 07:45:42;;;;;;;1.47;1.27;;;0.90;96.40;;;;;;6244416;23;20456;-71
2022/03/07 07:48:11;;;;;;;1.20;1.17;;;1.00;96.10;;;;;;6244308;23;20471;-72
2022/03/07 07:50:38;;;;;;;1.53;1.47;;;1.00;95.70;;;;;;6244569;23;20421;-71
2022/03/07 07:53:05;;;;;;;1.20;1.10;;;1.00;95.80;;;;;;6244385;23;20884;-70
2022/03/07 07:55:32;;;;;;;1.20;1.13;;;1.10;95.20;;;;;;6244684;23;20456;-71
2022/03/07 07:57:59;;;;;;;4.60;2.03;;;1.20;94.40;;;;;;6244334;23;20431;-72
2022/03/07 08:00:27;;;;;;;1.27;1.23;;;1.20;94.40;;;;;;6244756;23;20440;-71
2022/03/07 08:02:54;;;;;;;1.93;1.83;;;1.20;93.90;;;;;;6245040;23;20405;-71
2022/03/07 08:05:23;;;;;;;4.30;1.63;;;1.30;93.30;;;;;;6245119;23;20977;-72
2022/03/07 08:07:50;;;;;;;1.20;1.20;;;1.40;92.90;;;;;;6245465;23;20417;-73
2022/03/07 08:10:19;;;;;;;1.17;1.00;;;1.40;92.50;;;;;;6244517;23;20417;-72
2022/03/07 08:12:46;;;;;;;2.17;1.27;;;1.50;92.20;;;;;;6244552;23;20457;-72
2022/03/07 08:15:14;;;;;;;1.20;1.10;;;1.60;92.00;;;;;;6244174;23;20859;-74
2022/03/07 08:17:46;;;;;;;1.17;1.00;;;1.70;91.90;;;;;;6244797;23;20405;-73
2022/03/07 08:20:14;;;;;;;1.10;1.00;;;1.80;91.40;;;;;;6244389;23;20880;-72
2022/03/07 08:22:42;;;;;;;1.40;1.40;;;1.80;91.50;;;;;;6244656;23;20394;-73
2022/03/07 08:25:10;;;;;;;1.23;1.17;;;1.90;91.20;;;;;;6243985;23;20460;-72
2022/03/07 08:27:37;;;;;;;3.67;1.90;;;2.00;91.80;;;;;;6243846;23;20441;-72
2022/03/07 08:30:06;;;;;;;1.57;1.53;;;2.10;91.00;;;;;;6244164;23;20417;-71
2022/03/07 08:32:33;;;;;;;1.47;1.43;;;2.10;90.00;;;;;;6244450;23;20433;-72
2022/03/07 08:35:00;;;;;;;1.77;1.27;;;2.30;89.50;;;;;;6244413;23;20722;-72
2022/03/07 08:37:27;;;;;;;3.63;1.50;;;2.20;89.40;;;;;;6244286;23;20398;-73
2022/03/07 08:39:56;;;;;;;1.20;1.10;;;2.10;89.80;;;;;;6243925;23;20429;-70
2022/03/07 08:42:24;;;;;;;1.30;1.30;;;2.20;89.70;;;;;;6243747;23;20394;-72
2022/03/07 08:44:52;;;;;;;1.20;1.13;;;2.20;89.20;;;;;;6243600;23;20479;-72
2022/03/07 08:47:20;;;;;;;2.07;1.57;;;2.20;89.40;;;;;;6244532;23;20397;-71
2022/03/07 08:49:47;;;;;;;1.60;1.30;;;2.40;89.50;;;;;;6244215;23;20406;-73
2022/03/07 08:52:16;;;;;;;1.50;1.20;;;2.50;89.40;;;;;;6244072;23;20707;-73
2022/03/07 08:54:43;;;;;;;1.87;1.43;;;2.80;89.00;;;;;;6243937;23;20441;-72
2022/03/07 08:57:12;;;;;;;2.07;1.30;;;3.00;87.40;;;;;;6242246;23;20398;-72
2022/03/07 08:59:39;;;;;;;1.30;1.23;;;3.10;87.20;;;;;;6243279;23;20736;-71
2022/03/07 09:02:07;;;;;;;1.33;1.20;;;3.20;86.50;;;;;;6242507;23;20409;-72
2022/03/07 09:04:34;;;;;;;1.40;1.30;;;3.30;86.90;;;;;;6242612;23;20475;-74
2022/03/07 09:07:01;;;;;;;4.30;2.20;;;3.60;86.30;;;;;;6242838;23;20430;-70
2022/03/07 09:09:29;;;;;;;1.60;1.50;;;3.50;86.40;;;;;;6243181;23;20448;-74
2022/03/07 09:11:56;;;;;;;1.87;1.33;;;3.50;86.90;;;;;;6242987;23;20455;-72
2022/03/07 09:14:25;;;;;;;1.67;1.57;;;3.50;87.20;;;;;;6242665;23;20429;-72
2022/03/07 09:16:52;;;;;;;2.27;1.63;;;3.60;86.90;;;;;;6216397;23;20421;-71
2022/03/07 09:19:19;;;;;;;1.43;1.37;;;3.90;86.00;;;;;;6243095;23;20433;-73
2022/03/07 09:21:46;;;;;;;2.33;2.10;;;4.10;86.30;;;;;;6242769;23;20427;-74
2022/03/07 09:24:15;;;;;;;1.93;1.87;;;4.40;85.00;;;;;;6242894;23;20405;-72
2022/03/07 09:26:43;;;;;;;1.33;1.27;;;4.60;84.50;;;;;;6216560;23;20487;-72
2022/03/07 09:29:10;;;;;;;3.80;2.07;;;4.70;83.10;;;;;;6242821;23;20473;-74
2022/03/07 09:31:39;;;;;;;1.20;1.20;;;4.60;83.40;;;;;;6242669;23;20421;-72
2022/03/07 09:34:06;;;;;;;1.37;1.30;;;4.60;83.80;;;;;;6242762;23;20448;-72
2022/03/07 09:36:36;;;;;;;2.07;1.77;;;4.70;83.40;;;;;;6242758;23;20407;-71
2022/03/07 09:39:03;;;;;;;3.63;1.53;;;4.70;83.10;;;;;;6242461;23;20405;-70
2022/03/07 09:41:30;;;;;;;1.83;1.73;;;4.80;82.10;;;;;;6215716;23;21031;-70
2022/03/07 09:43:57;;;;;;;2.93;1.47;;;4.80;82.80;;;;;;6242733;23;20404;-73
2022/03/07 09:46:24;;;;;;;1.67;1.50;;;4.90;82.40;;;;;;6215479;23;20470;-71
2022/03/07 09:48:54;;;;;;;1.93;1.10;;;5.00;82.50;;;;;;6242846;23;20910;-72
2022/03/07 09:51:22;;;;;;;3.67;1.67;;;5.30;81.20;;;;;;6241936;23;20439;-71
2022/03/07 09:53:49;;;;;;;1.57;1.40;;;5.30;81.10;;;;;;6242972;23;20403;-72
2022/03/07 09:56:16;;;;;;;2.97;1.97;;;5.40;80.80;;;;;;6242680;23;20398;-68
2022/03/07 09:58:45;;;;;;;5.77;2.00;;;5.40;79.40;;;;;;6242992;23;20402;-71
2022/03/07 10:01:16;;;;;;;3.03;1.60;;;5.30;79.70;;;;;;6242879;23;20455;-73
2022/03/07 10:03:43;;;;;;;2.50;2.00;;;5.30;80.00;;;;;;6215480;23;20415;-73
2022/03/07 10:06:19;;;;;;;1.50;1.40;;;5.50;80.00;;;;;;6242496;23;20911;-73
2022/03/07 10:08:58;;;;;;;1.37;1.30;;;5.70;79.40;;;;;;6242708;23;20434;-74
2022/03/07 10:11:26;;;;;;;1.40;1.40;;;5.90;79.00;;;;;;6242437;23;20404;-72
2022/03/07 10:13:55;;;;;;;1.20;1.00;;;6.00;77.80;;;;;;6242560;23;20741;-73
2022/03/07 10:16:22;;;;;;;1.20;1.10;;;6.20;77.30;;;;;;6242158;23;20895;-72
2022/03/07 10:18:50;;;;;;;2.40;2.10;;;6.40;76.80;;;;;;6242672;23;20711;-73
2022/03/07 10:21:24;;;;;;;2.50;2.20;;;6.40;76.50;;;;;;6242304;23;20402;-73
2022/03/07 10:23:52;;;;;;;1.80;1.30;;;6.50;76.70;;;;;;6216327;23;20395;-72
2022/03/07 10:26:19;;;;;;;3.50;1.80;;;6.50;76.10;;;;;;6242793;23;20427;-72
2022/03/07 10:28:53;;;;;;;1.80;1.73;;;6.60;76.20;;;;;;6243945;23;20522;-72
2022/03/07 10:31:21;;;;;;;1.50;1.10;;;6.70;76.30;;;;;;6243838;23;20427;-72
2022/03/07 10:33:49;;;;;;;1.57;1.37;;;7.00;75.70;;;;;;6244207;23;20420;-72
2022/03/07 10:36:16;;;;;;;3.10;1.57;;;7.20;75.30;;;;;;6244360;23;20469;-71
2022/03/07 10:38:46;;;;;;;2.10;1.97;;;7.20;75.00;;;;;;6244353;23;20435;-72
2022/03/07 10:41:13;;;;;;;2.00;1.60;;;7.30;74.20;;;;;;6244213;23;20462;-71
2022/03/07 10:43:48;;;;;;;2.03;1.70;;;7.40;74.50;;;;;;6244258;23;20447;-71
2022/03/07 10:46:26;;;;;;;1.87;1.63;;;7.50;73.50;;;;;;6244256;23;20537;-71
2022/03/07 10:48:53;;;;;;;3.60;1.77;;;7.20;73.80;;;;;;6245050;23;20402;-72
2022/03/07 10:51:21;;;;;;;2.73;1.70;;;7.40;73.50;;;;;;6243271;23;20482;-71
2022/03/07 10:53:50;;;;;;;2.80;1.30;;;7.50;73.50;;;;;;6244405;23;20753;-72
2022/03/07 10:56:21;;;;;;;3.80;1.67;;;7.70;73.20;;;;;;6244382;23;20468;-72
2022/03/07 10:58:49;;;;;;;9.30;2.37;;;8.00;73.10;;;;;;6244284;23;20548;-74
2022/03/07 11:01:28;;;;;;;4.53;1.70;;;8.20;72.10;;;;;;6244114;23;20399;-74
2022/03/07 11:03:55;;;;;;;3.20;1.50;;;8.20;71.80;;;;;;6243902;23;20402;-75
2022/03/07 11:06:22;;;;;;;1.20;1.20;;;8.30;71.60;;;;;;6243953;23;20484;-74
2022/03/07 11:08:50;;;;;;;5.23;1.87;;;8.40;70.70;;;;;;6244103;23;20455;-73
2022/03/07 11:11:18;;;;;;;2.57;1.40;;;8.60;70.70;;;;;;6244018;23;20794;-73
2022/03/07 11:13:48;;;;;;;1.67;1.57;;;8.70;70.10;;;;;;6243846;23;20400;-74
2022/03/07 11:16:15;;;;;;;1.60;1.50;;;8.90;70.30;;;;;;6244336;23;20468;-73
2022/03/07 11:18:48;;;;;;;2.37;1.87;;;9.10;69.50;;;;;;6243293;23;20866;-71
2022/03/07 11:21:15;;;;;;;3.30;2.20;;;9.20;68.30;;;;;;6243883;23;20402;-70
2022/03/07 11:23:42;;;;;;;3.17;1.90;;;9.10;67.90;;;;;;6243835;23;20448;-73
2022/03/07 11:26:11;;;;;;;1.40;1.20;;;9.20;68.00;;;;;;6243831;23;20469;-71
2022/03/07 11:28:40;;;;;;;4.30;2.03;;;9.30;68.10;;;;;;6243593;23;20720;-71
2022/03/07 11:31:06;;;;;;;3.67;1.60;;;9.20;67.30;;;;;;6243575;23;20822;-71
2022/03/07 11:33:37;;;;;;;1.20;1.20;;;9.10;67.40;;;;;;6243837;23;20451;-72
2022/03/07 11:36:07;;;;;;;3.40;1.60;;;9.40;67.50;;;;;;6243549;23;20415;-71
2022/03/07 11:38:35;;;;;;;1.60;1.53;;;9.60;67.10;;;;;;6243159;23;20432;-71
2022/03/07 11:41:06;;;;;;;3.10;1.40;;;9.10;66.10;;;;;;6243350;23;20401;-72
2022/03/07 11:43:36;;;;;;;1.63;1.30;;;8.70;67.00;;;;;;6244193;23;20407;-71
2022/03/07 11:46:05;;;;;;;1.30;1.23;;;8.10;67.70;;;;;;6243400;23;20487;-71
2022/03/07 11:48:47;;;;;;;1.40;1.40;;;7.70;68.90;;;;;;6243762;23;20429;-70
2022/03/07 11:51:18;;;;;;;3.10;1.80;;;8.20;69.50;;;;;;6242686;23;20426;-72
2022/03/07 11:53:46;;;;;;;1.97;1.67;;;8.70;68.20;;;;;;6216873;23;20398;-70
2022/03/07 11:56:17;;;;;;;2.70;1.73;;;9.10;67.30;;;;;;6243471;23;20395;-71
2022/03/07 11:58:50;;;;;;;1.70;1.40;;;9.80;66.90;;;;;;6243200;23;20405;-70
2022/03/07 12:01:18;;;;;;;2.90;1.90;;;10.40;65.00;;;;;;6243479;23;20403;-70
2022/03/07 12:03:47;;;;;;;5.33;1.93;;;11.00;65.10;;;;;;6243605;23;20413;-71
2022/03/07 12:06:15;;;;;;;1.70;1.67;;;11.00;63.80;;;;;;6242961;23;20986;-72
2022/03/07 12:08:48;;;;;;;5.10;2.43;;;11.00;63.00;;;;;;6243086;23;20471;-72
2022/03/07 12:11:27;;;;;;;1.20;1.10;;;11.00;63.20;;;;;;6243203;23;20397;-71
2022/03/07 12:14:02;;;;;;;1.60;1.53;;;11.10;63.20;;;;;;6216856;23;20402;-69
2022/03/07 12:16:32;;;;;;;1.60;1.20;;;11.00;62.70;;;;;;6243371;23;20404;-71
2022/03/07 12:19:09;;;;;;;6.20;2.10;;;11.00;63.20;;;;;;6243528;23;20896;-72
2022/03/07 12:21:37;;;;;;;2.60;2.07;;;11.10;63.00;;;;;;6242940;23;20401;-73
2022/03/07 12:24:07;;;;;;;1.87;1.70;;;11.00;62.80;;;;;;6243641;23;20396;-71
2022/03/07 12:26:43;;;;;;;2.47;1.90;;;10.90;62.40;;;;;;6243212;23;20537;-71
2022/03/07 12:29:12;;;;;;;1.20;1.03;;;11.10;63.30;;;;;;6243296;23;20466;-72
2022/03/07 12:31:39;;;;;;;1.73;1.67;;;11.50;62.20;;;;;;6243237;23;20815;-72
2022/03/07 12:34:07;;;;;;;4.70;2.23;;;11.70;61.40;;;;;;6243368;23;20406;-72
2022/03/07 12:36:34;;;;;;;1.53;1.47;;;11.80;61.00;;;;;;6244374;23;20531;-71
2022/03/07 12:39:01;;;;;;;1.30;1.30;;;11.70;61.40;;;;;;6244243;23;20399;-72
2022/03/07 12:41:31;;;;;;;3.50;2.23;;;11.30;62.30;;;;;;6244431;23;20405;-72
2022/03/07 12:43:59;;;;;;;1.30;1.10;;;11.20;62.30;;;;;;6244534;23;20447;-70
2022/03/07 12:46:27;;;;;;;1.80;1.60;;;11.30;62.10;;;;;;6243892;23;20430;-71
2022/03/07 12:48:56;;;;;;;7.60;1.93;;;11.40;62.10;;;;;;6243878;23;20417;-70
2022/03/07 12:51:24;;;;;;;2.17;1.87;;;11.40;61.00;;;;;;6244152;23;20405;-71
2022/03/07 12:53:53;;;;;;;2.87;2.17;;;11.50;61.70;;;;;;6244122;23;20399;-71
2022/03/07 12:56:22;;;;;;;2.13;1.70;;;11.90;61.10;;;;;;6227635;23;20400;-70
2022/03/07 12:58:51;;;;;;;2.47;1.73;;;12.10;60.90;;;;;;6244576;23;20464;-71
2022/03/07 13:01:19;;;;;;;1.53;1.43;;;12.00;59.80;;;;;;6244146;23;20400;-70